createdAt,value
2022-08-17T00:00:56.368Z,21.85
2022-08-17T00:02:31.818Z,21.99
2022-08-17T00:04:12.690Z,22.05
2022-08-17T00:05:53.686Z,22.10
2022-08-17T00:07:26.056Z,22.13
2022-08-17T00:09:01.949Z,22.08
2022-08-17T00:10:36.030Z,22.08
2022-08-17T00:12:40.833Z,22.09
2022-08-17T00:14:07.410Z,22.01
2022-08-17T00:15:39.708Z,21.91
2022-08-17T00:17:12.959Z,21.95
2022-08-17T00:18:58.346Z,21.98
2022-08-17T00:20:42.583Z,22.02
2022-08-17T00:22:33.213Z,22.01
2022-08-17T00:24:09.503Z,22.05
2022-08-17T00:25:44.087Z,22.05
2022-08-17T00:27:17.563Z,22.03
2022-08-17T00:28:50.804Z,22.05
2022-08-17T00:30:24.090Z,22.08
2022-08-17T00:31:57.431Z,22.04
2022-08-17T00:33:32.565Z,21.92
2022-08-17T00:35:06.269Z,21.90
2022-08-17T00:36:40.806Z,21.86
2022-08-17T00:38:13.667Z,21.83
2022-08-17T00:39:47.381Z,21.78
2022-08-17T00:41:24.004Z,21.81
2022-08-17T00:42:57.273Z,21.79
2022-08-17T00:44:31.320Z,21.72
2022-08-17T00:46:09.019Z,21.69
2022-08-17T00:47:42.378Z,21.72
2022-08-17T00:49:19.475Z,21.75
2022-08-17T00:50:59.128Z,21.76
2022-08-17T00:52:43.844Z,21.73
2022-08-17T00:54:23.609Z,21.67
2022-08-17T00:55:57.099Z,21.61
2022-08-17T00:57:34.397Z,21.56
2022-08-17T00:59:10.443Z,21.53
2022-08-17T01:00:47.017Z,21.49
2022-08-17T01:02:20.637Z,21.37
2022-08-17T01:03:57.429Z,21.27
2022-08-17T01:05:38.415Z,21.22
2022-08-17T01:07:16.307Z,21.21
2022-08-17T01:08:57.700Z,21.18
2022-08-17T01:10:58.798Z,21.09
2022-08-17T01:12:35.845Z,21.16
2022-08-17T01:14:10.126Z,21.17
2022-08-17T01:15:47.795Z,21.17
2022-08-17T01:17:21.023Z,21.16
2022-08-17T01:18:56.874Z,21.11
2022-08-17T01:20:30.160Z,21.12
2022-08-17T01:22:25.245Z,21.12
2022-08-17T01:23:58.654Z,21.13
2022-08-17T01:25:32.325Z,21.12
2022-08-17T01:27:10.112Z,21.14
2022-08-17T01:28:53.760Z,21.12
2022-08-17T01:30:58.620Z,21.10
2022-08-17T01:32:22.599Z,20.98
2022-08-17T01:33:56.205Z,21.05
2022-08-17T01:35:29.516Z,21.03
2022-08-17T01:37:02.798Z,21.03
2022-08-17T01:38:38.525Z,21.03
2022-08-17T01:40:20.229Z,21.03
2022-08-17T01:41:57.467Z,21.05
2022-08-17T01:43:36.160Z,21.03
2022-08-17T01:45:14.501Z,21.06
2022-08-17T01:46:47.987Z,21.08
2022-08-17T01:48:21.921Z,21.08
2022-08-17T01:49:55.392Z,21.09
2022-08-17T01:51:32.946Z,21.07
2022-08-17T01:53:10.582Z,21.09
2022-08-17T01:54:48.654Z,21.11
2022-08-17T01:56:25.618Z,21.11
2022-08-17T01:57:59.557Z,21.06
2022-08-17T01:59:35.687Z,20.91
2022-08-17T02:01:10.109Z,20.94
2022-08-17T02:02:45.135Z,20.95
2022-08-17T02:04:18.760Z,20.86
2022-08-17T02:05:53.548Z,20.87
2022-08-17T02:07:27.056Z,20.83
2022-08-17T02:09:03.052Z,20.75
2022-08-17T02:10:38.752Z,20.80
2022-08-17T02:12:38.790Z,20.77
2022-08-17T02:14:12.748Z,20.74
2022-08-17T02:15:46.340Z,20.72
2022-08-17T02:17:19.728Z,20.68
2022-08-17T02:18:53.280Z,20.65
2022-08-17T02:20:41.740Z,20.65
2022-08-17T02:22:18.351Z,20.67
2022-08-17T02:23:50.606Z,20.67
2022-08-17T02:25:23.962Z,20.64
2022-08-17T02:26:59.286Z,20.63
2022-08-17T02:28:32.636Z,20.63
2022-08-17T02:30:05.414Z,20.60
2022-08-17T02:32:00.482Z,20.58
2022-08-17T02:33:43.089Z,20.58
2022-08-17T02:35:16.833Z,20.55
2022-08-17T02:36:54.242Z,20.49
2022-08-17T02:38:27.690Z,20.48
2022-08-17T02:40:01.366Z,20.42
2022-08-17T02:41:35.566Z,20.44
2022-08-17T02:43:09.817Z,20.45
2022-08-17T02:44:43.774Z,20.39
2022-08-17T02:46:16.106Z,20.39
2022-08-17T02:47:50.325Z,20.31
2022-08-17T02:49:22.595Z,20.31
2022-08-17T02:50:56.204Z,20.23
2022-08-17T02:52:43.864Z,20.11
2022-08-17T02:54:39.843Z,20.12
2022-08-17T02:56:11.191Z,20.11
2022-08-17T02:57:44.058Z,20.08
2022-08-17T02:59:18.971Z,20.14
2022-08-17T03:00:52.223Z,20.15
2022-08-17T03:02:25.576Z,20.20
2022-08-17T03:03:59.107Z,20.24
2022-08-17T03:05:34.138Z,20.25
2022-08-17T03:07:07.897Z,20.25
2022-08-17T03:08:40.942Z,20.26
2022-08-17T03:10:16.586Z,20.22
2022-08-17T03:11:50.912Z,20.19
2022-08-17T03:13:29.224Z,20.25
2022-08-17T03:15:05.042Z,20.23
2022-08-17T03:16:38.623Z,20.16
2022-08-17T03:18:24.336Z,20.10
2022-08-17T03:19:59.416Z,20.11
2022-08-17T03:21:32.704Z,20.08
2022-08-17T03:23:05.167Z,20.06
2022-08-17T03:24:39.920Z,20.04
2022-08-17T03:26:15.571Z,20.06
2022-08-17T03:27:49.038Z,20.09
2022-08-17T03:29:25.006Z,20.08
2022-08-17T03:30:59.570Z,20.11
2022-08-17T03:32:38.508Z,20.14
2022-08-17T03:34:11.896Z,20.16
2022-08-17T03:35:46.068Z,20.13
2022-08-17T03:37:19.308Z,20.15
2022-08-17T03:38:52.512Z,20.16
2022-08-17T03:40:39.860Z,20.17
2022-08-17T03:42:32.084Z,20.22
2022-08-17T03:44:06.090Z,20.28
2022-08-17T03:45:57.354Z,20.26
2022-08-17T03:47:49.812Z,20.37
2022-08-17T03:49:40.319Z,20.31
2022-08-17T03:51:36.528Z,20.34
2022-08-17T03:53:30.801Z,20.30
2022-08-17T03:55:21.724Z,20.43
2022-08-17T03:57:11.884Z,20.47
2022-08-17T03:58:45.415Z,20.50
2022-08-17T04:00:18.727Z,20.54
2022-08-17T04:01:54.051Z,20.59
2022-08-17T04:03:29.292Z,20.64
2022-08-17T04:05:02.948Z,20.69
2022-08-17T04:06:35.135Z,20.73
2022-08-17T04:08:09.000Z,20.75
2022-08-17T04:09:43.014Z,20.76
2022-08-17T04:11:16.400Z,20.78
2022-08-17T04:12:52.959Z,20.75
2022-08-17T04:14:26.413Z,20.75
2022-08-17T04:16:00.080Z,20.75
2022-08-17T04:17:33.409Z,20.76
2022-08-17T04:19:08.032Z,20.77
2022-08-17T04:20:41.693Z,20.78
2022-08-17T04:22:31.818Z,20.75
2022-08-17T04:24:07.785Z,20.77
2022-08-17T04:25:45.491Z,20.73
2022-08-17T04:27:18.694Z,20.70
2022-08-17T04:28:51.927Z,20.73
2022-08-17T04:30:26.131Z,20.76
2022-08-17T04:31:59.533Z,20.81
2022-08-17T04:33:32.071Z,20.85
2022-08-17T04:35:07.583Z,20.87
2022-08-17T04:36:41.137Z,20.93
2022-08-17T04:38:26.991Z,20.99
2022-08-17T04:40:14.063Z,20.99
2022-08-17T04:42:04.976Z,21.02
2022-08-17T04:43:40.822Z,21.13
2022-08-17T04:45:13.196Z,21.20
2022-08-17T04:46:48.154Z,21.30
2022-08-17T04:48:20.919Z,21.42
2022-08-17T04:49:54.215Z,21.53
2022-08-17T04:51:31.198Z,21.64
2022-08-17T04:53:03.814Z,21.77
2022-08-17T04:54:37.189Z,21.90
2022-08-17T04:56:16.983Z,22.02
2022-08-17T04:57:52.224Z,22.13
2022-08-17T04:59:25.409Z,22.35
2022-08-17T05:00:58.002Z,22.62
2022-08-17T05:02:32.949Z,23.00
2022-08-17T05:04:32.982Z,23.41
2022-08-17T05:06:02.425Z,23.87
2022-08-17T05:07:37.156Z,24.33
2022-08-17T05:09:10.425Z,24.80
2022-08-17T05:10:45.199Z,25.17
2022-08-17T05:12:19.070Z,25.58
2022-08-17T05:13:52.655Z,25.97
2022-08-17T05:15:25.099Z,26.37
2022-08-17T05:16:58.397Z,26.77
2022-08-17T05:18:34.049Z,27.24
2022-08-17T05:20:08.285Z,27.63
2022-08-17T05:21:41.534Z,27.99
2022-08-17T05:23:17.206Z,28.34
2022-08-17T05:24:53.808Z,28.60
2022-08-17T05:26:29.568Z,28.91
2022-08-17T05:28:02.876Z,29.05
2022-08-17T05:29:36.536Z,29.26
2022-08-17T05:31:10.092Z,29.22
2022-08-17T05:32:53.514Z,29.40
2022-08-17T05:34:26.971Z,29.69
2022-08-17T05:36:01.575Z,29.92
2022-08-17T05:37:35.088Z,30.10
2022-08-17T05:39:15.658Z,30.19
2022-08-17T05:40:50.497Z,30.39
2022-08-17T05:42:24.164Z,30.57
2022-08-17T05:43:57.597Z,30.77
2022-08-17T05:45:54.358Z,31.09
2022-08-17T05:47:27.452Z,31.20
2022-08-17T05:49:05.548Z,31.33
2022-08-17T05:50:49.995Z,31.25
2022-08-17T05:52:32.980Z,31.22
2022-08-17T05:54:24.810Z,31.35
2022-08-17T05:56:29.623Z,31.50
2022-08-17T05:58:16.910Z,31.85
2022-08-17T06:00:03.066Z,32.10
2022-08-17T06:01:53.972Z,32.11
2022-08-17T06:03:37.863Z,32.18
2022-08-17T06:05:23.725Z,32.38
2022-08-17T06:07:06.065Z,32.38
2022-08-17T06:08:51.851Z,32.55
2022-08-17T06:10:34.256Z,32.72
2022-08-17T06:12:25.874Z,33.18
2022-08-17T06:14:15.026Z,33.33
2022-08-17T06:15:57.633Z,33.50
2022-08-17T06:17:32.013Z,33.71
2022-08-17T06:19:13.527Z,33.85
2022-08-17T06:20:53.586Z,33.79
2022-08-17T06:22:33.294Z,33.73
2022-08-17T06:24:16.866Z,33.67
2022-08-17T06:25:56.605Z,33.58
2022-08-17T06:27:37.126Z,33.63
2022-08-17T06:29:24.885Z,33.73
2022-08-17T06:31:03.532Z,34.00
2022-08-17T06:32:39.449Z,33.76
2022-08-17T06:34:13.899Z,33.80
2022-08-17T06:35:59.807Z,33.83
2022-08-17T06:37:49.189Z,34.06
2022-08-17T06:39:36.534Z,34.30
2022-08-17T06:41:19.621Z,34.68
2022-08-17T06:43:07.254Z,35.08
2022-08-17T06:44:50.918Z,35.51
2022-08-17T06:46:30.344Z,35.12
2022-08-17T06:48:13.263Z,35.07
2022-08-17T06:49:55.428Z,35.10
2022-08-17T06:51:34.123Z,35.26
2022-08-17T06:53:15.834Z,35.37
2022-08-17T06:55:00.282Z,35.42
2022-08-17T06:56:53.331Z,35.22
2022-08-17T06:58:31.802Z,35.15
2022-08-17T07:00:09.394Z,35.43
2022-08-17T07:01:43.319Z,35.46
2022-08-17T07:03:28.131Z,35.59
2022-08-17T07:05:02.895Z,35.67
2022-08-17T07:06:41.826Z,35.83
2022-08-17T07:08:20.960Z,36.08
2022-08-17T07:09:56.071Z,36.41
2022-08-17T07:11:33.671Z,36.50
2022-08-17T07:13:25.754Z,36.69
2022-08-17T07:15:09.054Z,37.05
2022-08-17T07:16:47.070Z,37.27
2022-08-17T07:18:27.808Z,37.34
2022-08-17T07:20:05.952Z,37.03
2022-08-17T07:21:49.346Z,36.97
2022-08-17T07:23:32.783Z,37.19
2022-08-17T07:25:09.105Z,37.52
2022-08-17T07:26:42.343Z,37.78
2022-08-17T07:28:23.707Z,37.77
2022-08-17T07:30:00.156Z,37.75
2022-08-17T07:31:33.596Z,37.66
2022-08-17T07:33:13.405Z,37.36
2022-08-17T07:35:15.611Z,37.70
2022-08-17T07:37:03.030Z,37.76
2022-08-17T07:38:36.664Z,37.85
2022-08-17T07:40:31.482Z,38.01
2022-08-17T07:42:04.849Z,37.89
2022-08-17T07:43:48.500Z,37.58
2022-08-17T07:45:35.774Z,37.38
2022-08-17T07:47:35.589Z,37.09
2022-08-17T07:49:23.615Z,37.04
2022-08-17T07:50:57.501Z,37.14
2022-08-17T07:52:51.497Z,36.97
2022-08-17T07:54:30.769Z,36.93
2022-08-17T07:56:05.205Z,37.09
2022-08-17T07:57:39.612Z,37.46
2022-08-17T07:59:15.966Z,37.19
2022-08-17T08:01:05.557Z,37.27
2022-08-17T08:02:42.760Z,37.45
2022-08-17T08:05:00.105Z,37.06
2022-08-17T08:06:27.795Z,37.47
2022-08-17T08:08:04.355Z,37.07
2022-08-17T08:09:41.319Z,36.93
2022-08-17T08:11:16.542Z,36.68
2022-08-17T08:13:05.888Z,36.57
2022-08-17T08:14:42.351Z,36.78
2022-08-17T08:16:29.361Z,36.79
2022-08-17T08:18:05.785Z,36.60
2022-08-17T08:19:38.359Z,36.62
2022-08-17T08:21:18.419Z,36.63
2022-08-17T08:23:00.861Z,36.30
2022-08-17T08:24:53.973Z,36.21
2022-08-17T08:26:35.251Z,35.84
2022-08-17T08:28:18.860Z,35.81
2022-08-17T08:29:58.581Z,35.88
2022-08-17T08:31:42.651Z,36.09
2022-08-17T08:33:33.251Z,36.37
2022-08-17T08:35:10.569Z,36.71
2022-08-17T08:37:12.720Z,36.75
2022-08-17T08:38:54.993Z,36.73
2022-08-17T08:40:44.402Z,36.84
2022-08-17T08:42:26.033Z,36.16
2022-08-17T08:44:15.811Z,36.20
2022-08-17T08:45:59.135Z,35.66
2022-08-17T08:47:50.916Z,35.79
2022-08-17T08:50:03.503Z,35.80
2022-08-17T08:51:46.708Z,35.48
2022-08-17T08:53:36.334Z,36.01
2022-08-17T08:55:16.802Z,36.16
2022-08-17T08:57:22.118Z,36.22
2022-08-17T08:58:55.302Z,36.85
2022-08-17T09:00:36.259Z,37.02
2022-08-17T09:02:25.455Z,37.22
2022-08-17T09:04:24.706Z,37.02
2022-08-17T09:06:37.329Z,36.90
2022-08-17T09:08:16.670Z,37.28
2022-08-17T09:09:59.528Z,37.03
2022-08-17T09:12:02.254Z,36.56
2022-08-17T09:13:44.131Z,36.53
2022-08-17T09:15:23.132Z,36.43
2022-08-17T09:17:07.192Z,36.86
2022-08-17T09:19:03.565Z,36.79
2022-08-17T09:20:48.083Z,36.56
2022-08-17T09:22:33.490Z,35.82
2022-08-17T09:24:13.040Z,35.08
2022-08-17T09:25:50.935Z,34.79
2022-08-17T09:27:31.731Z,35.19
2022-08-17T09:29:10.046Z,35.52
2022-08-17T09:30:47.592Z,35.80
2022-08-17T09:32:26.636Z,35.38
2022-08-17T09:34:05.938Z,35.40
2022-08-17T09:35:43.811Z,35.22
2022-08-17T09:37:24.377Z,34.93
2022-08-17T09:39:02.713Z,34.71
2022-08-17T09:40:42.277Z,34.89
2022-08-17T09:42:22.865Z,34.63
2022-08-17T09:44:02.642Z,34.36
2022-08-17T09:45:42.677Z,34.12
2022-08-17T09:47:27.947Z,33.78
2022-08-17T09:49:10.825Z,33.45
2022-08-17T09:51:03.772Z,33.53
2022-08-17T09:52:39.886Z,34.00
2022-08-17T09:54:39.130Z,34.26
2022-08-17T09:56:31.295Z,34.26
2022-08-17T09:58:13.991Z,33.98
2022-08-17T10:00:00.395Z,33.92
2022-08-17T10:01:38.620Z,34.01
2022-08-17T10:03:28.388Z,34.30
2022-08-17T10:05:09.041Z,34.32
2022-08-17T10:06:54.310Z,34.42
2022-08-17T10:08:36.264Z,34.60
2022-08-17T10:10:17.152Z,34.76
2022-08-17T10:12:17.194Z,34.88
2022-08-17T10:13:59.653Z,34.84
2022-08-17T10:15:44.853Z,34.82
2022-08-17T10:17:29.030Z,34.68
2022-08-17T10:19:13.870Z,34.60
2022-08-17T10:21:17.123Z,34.73
2022-08-17T10:23:12.612Z,34.90
2022-08-17T10:25:22.449Z,34.88
2022-08-17T10:27:01.820Z,34.61
2022-08-17T10:28:43.976Z,34.76
2022-08-17T10:30:19.268Z,34.69
2022-08-17T10:31:57.726Z,34.79
2022-08-17T10:33:48.729Z,34.67
2022-08-17T10:35:35.651Z,34.38
2022-08-17T10:37:29.471Z,34.32
2022-08-17T10:39:12.391Z,34.46
2022-08-17T10:40:51.248Z,34.53
2022-08-17T10:42:32.850Z,34.58
2022-08-17T10:44:39.054Z,34.58
2022-08-17T10:46:30.375Z,34.72
2022-08-17T10:48:27.171Z,34.84
2022-08-17T10:50:35.446Z,34.71
2022-08-17T10:52:50.192Z,34.84
2022-08-17T10:54:48.173Z,35.03
2022-08-17T10:56:40.456Z,34.90
2022-08-17T10:58:24.755Z,35.15
2022-08-17T11:00:01.639Z,35.29
2022-08-17T11:02:05.490Z,35.32
2022-08-17T11:03:39.298Z,35.53
2022-08-17T11:05:27.627Z,35.28
2022-08-17T11:07:14.971Z,35.35
2022-08-17T11:09:32.048Z,35.34
2022-08-17T11:11:26.809Z,35.18
2022-08-17T11:13:08.977Z,35.16
2022-08-17T11:15:00.576Z,35.14
2022-08-17T11:16:48.105Z,35.09
2022-08-17T11:18:47.742Z,34.93
2022-08-17T11:20:41.079Z,34.92
2022-08-17T11:22:51.637Z,35.16
2022-08-17T11:24:35.280Z,35.19
2022-08-17T11:26:26.353Z,34.99
2022-08-17T11:28:08.753Z,35.07
2022-08-17T11:29:53.574Z,35.04
2022-08-17T11:31:39.883Z,34.99
2022-08-17T11:33:55.462Z,35.06
2022-08-17T11:35:39.989Z,35.01
2022-08-17T11:37:35.744Z,35.15
2022-08-17T11:39:38.267Z,35.16
2022-08-17T11:41:26.781Z,35.31
2022-08-17T11:43:30.258Z,35.19
2022-08-17T11:45:32.637Z,35.27
2022-08-17T11:47:32.708Z,35.29
2022-08-17T11:49:37.703Z,35.56
2022-08-17T11:51:31.741Z,35.48
2022-08-17T11:53:06.024Z,35.44
2022-08-17T11:54:45.531Z,35.37
2022-08-17T11:56:34.392Z,35.31
2022-08-17T11:58:37.558Z,35.42
2022-08-17T12:01:06.027Z,35.50
2022-08-17T12:02:48.237Z,35.63
2022-08-17T12:04:29.597Z,35.39
2022-08-17T12:06:07.267Z,35.24
2022-08-17T12:07:45.766Z,35.08
2022-08-17T12:09:24.706Z,35.22
2022-08-17T12:11:04.764Z,35.31
2022-08-17T12:12:44.603Z,35.37
2022-08-17T12:14:32.197Z,35.27
2022-08-17T12:16:16.589Z,35.43
2022-08-17T12:17:53.939Z,35.35
2022-08-17T12:19:29.661Z,35.40
2022-08-17T12:21:15.503Z,35.45
2022-08-17T12:22:57.721Z,35.28
2022-08-17T12:24:44.880Z,35.21
2022-08-17T12:26:23.153Z,35.22
2022-08-17T12:28:05.286Z,35.22
2022-08-17T12:29:45.388Z,35.08
2022-08-17T12:31:26.150Z,34.97
2022-08-17T12:32:59.747Z,34.94
2022-08-17T12:34:36.843Z,34.97
2022-08-17T12:36:15.403Z,35.01
2022-08-17T12:37:51.381Z,35.18
2022-08-17T12:39:26.584Z,35.17
2022-08-17T12:41:00.034Z,35.13
2022-08-17T12:42:37.866Z,35.23
2022-08-17T12:44:16.742Z,35.34
2022-08-17T12:45:58.172Z,35.44
2022-08-17T12:47:32.002Z,35.58
2022-08-17T12:49:17.034Z,35.60
2022-08-17T12:50:51.617Z,35.55
2022-08-17T12:52:26.920Z,35.48
2022-08-17T12:54:00.084Z,35.47
2022-08-17T12:55:39.135Z,35.42
2022-08-17T12:57:14.752Z,35.47
2022-08-17T12:58:54.123Z,35.48
2022-08-17T13:00:30.109Z,35.53
2022-08-17T13:02:04.060Z,35.54
2022-08-17T13:03:40.802Z,35.52
2022-08-17T13:05:23.468Z,35.49
2022-08-17T13:06:59.528Z,35.44
2022-08-17T13:08:38.868Z,35.46
2022-08-17T13:10:19.446Z,35.46
2022-08-17T13:11:56.653Z,35.38
2022-08-17T13:13:32.463Z,35.34
2022-08-17T13:15:07.928Z,35.29
2022-08-17T13:16:41.212Z,35.30
2022-08-17T13:18:39.136Z,35.22
2022-08-17T13:20:16.686Z,35.09
2022-08-17T13:21:53.800Z,35.22
2022-08-17T13:23:29.457Z,35.32
2022-08-17T13:25:09.324Z,35.26
2022-08-17T13:26:45.741Z,35.17
2022-08-17T13:28:30.748Z,35.17
2022-08-17T13:30:14.946Z,35.18
2022-08-17T13:31:52.844Z,35.22
2022-08-17T13:33:44.927Z,35.29
2022-08-17T13:35:45.867Z,35.30
2022-08-17T13:37:30.975Z,35.21
2022-08-17T13:39:08.948Z,35.24
2022-08-17T13:40:51.975Z,35.24
2022-08-17T13:42:48.111Z,35.19
2022-08-17T13:44:35.059Z,35.19
2022-08-17T13:46:19.971Z,35.12
2022-08-17T13:48:06.663Z,35.06
2022-08-17T13:49:48.541Z,35.11
2022-08-17T13:51:31.858Z,35.05
2022-08-17T13:53:17.707Z,35.11
2022-08-17T13:54:53.170Z,35.07
2022-08-17T13:56:39.576Z,35.06
2022-08-17T13:58:13.290Z,35.06
2022-08-17T13:59:53.405Z,35.01
2022-08-17T14:01:35.613Z,35.03
2022-08-17T14:03:08.917Z,35.10
2022-08-17T14:04:44.691Z,35.11
2022-08-17T14:06:49.325Z,35.13
2022-08-17T14:08:14.174Z,35.11
2022-08-17T14:09:53.508Z,35.09
2022-08-17T14:11:27.185Z,35.12
2022-08-17T14:13:00.359Z,35.11
2022-08-17T14:14:33.625Z,35.11
2022-08-17T14:16:07.273Z,35.18
2022-08-17T14:17:42.527Z,35.23
2022-08-17T14:19:16.172Z,35.26
2022-08-17T14:20:49.661Z,35.15
2022-08-17T14:22:27.010Z,35.10
2022-08-17T14:24:00.707Z,35.17
2022-08-17T14:25:33.907Z,35.19
2022-08-17T14:27:09.159Z,35.21
2022-08-17T14:28:54.500Z,35.19
2022-08-17T14:30:31.063Z,35.11
2022-08-17T14:32:08.136Z,35.08
2022-08-17T14:33:42.776Z,35.08
2022-08-17T14:35:17.275Z,35.02
2022-08-17T14:36:50.966Z,35.02
2022-08-17T14:38:24.349Z,35.09
2022-08-17T14:39:59.556Z,35.11
2022-08-17T14:41:32.953Z,35.09
2022-08-17T14:43:06.987Z,35.04
2022-08-17T14:44:41.215Z,35.05
2022-08-17T14:46:14.483Z,35.11
2022-08-17T14:47:47.791Z,35.10
2022-08-17T14:49:23.076Z,35.08
2022-08-17T14:50:56.871Z,35.03
2022-08-17T14:52:30.301Z,35.00
2022-08-17T14:54:04.605Z,34.93
2022-08-17T14:55:40.537Z,34.90
2022-08-17T14:57:24.688Z,34.88
2022-08-17T14:59:07.471Z,34.87
2022-08-17T15:00:43.848Z,34.90
2022-08-17T15:02:17.356Z,34.89
2022-08-17T15:03:51.037Z,34.90
2022-08-17T15:05:31.650Z,34.88
2022-08-17T15:07:06.682Z,34.87
2022-08-17T15:08:39.909Z,34.84
2022-08-17T15:10:14.441Z,34.86
2022-08-17T15:11:47.641Z,34.90
2022-08-17T15:13:23.330Z,34.92
2022-08-17T15:14:57.190Z,34.89
2022-08-17T15:16:30.440Z,34.85
2022-08-17T15:18:03.993Z,34.83
2022-08-17T15:19:37.827Z,34.82
2022-08-17T15:21:12.487Z,34.75
2022-08-17T15:22:46.669Z,34.75
2022-08-17T15:24:19.880Z,34.72
2022-08-17T15:25:54.812Z,34.70
2022-08-17T15:27:32.307Z,34.63
2022-08-17T15:29:06.079Z,34.62
2022-08-17T15:30:43.008Z,34.56
2022-08-17T15:32:27.857Z,34.55
2022-08-17T15:34:01.119Z,34.58
2022-08-17T15:35:35.032Z,34.58
2022-08-17T15:37:09.842Z,34.57
2022-08-17T15:38:44.527Z,34.54
2022-08-17T15:40:18.017Z,34.51
2022-08-17T15:41:58.084Z,34.47
2022-08-17T15:43:33.835Z,34.41
2022-08-17T15:45:10.927Z,34.40
2022-08-17T15:46:44.148Z,34.37
2022-08-17T15:48:20.544Z,34.36
2022-08-17T15:49:59.490Z,34.31
2022-08-17T15:51:36.719Z,34.24
2022-08-17T15:53:11.308Z,34.24
2022-08-17T15:54:52.099Z,34.19
2022-08-17T15:56:26.640Z,34.17
2022-08-17T15:58:00.539Z,34.13
2022-08-17T15:59:33.803Z,34.13
2022-08-17T16:01:16.631Z,34.10
2022-08-17T16:03:33.712Z,34.12
2022-08-17T16:04:46.271Z,34.08
2022-08-17T16:06:21.127Z,34.05
2022-08-17T16:07:54.668Z,34.03
2022-08-17T16:09:29.522Z,33.99
2022-08-17T16:11:04.357Z,33.99
2022-08-17T16:12:38.292Z,33.99
2022-08-17T16:14:11.537Z,33.98
2022-08-17T16:15:56.749Z,33.95
2022-08-17T16:17:40.231Z,33.92
2022-08-17T16:19:13.907Z,33.87
2022-08-17T16:20:47.131Z,33.85
2022-08-17T16:22:32.589Z,33.84
2022-08-17T16:24:13.382Z,33.83
2022-08-17T16:25:53.754Z,33.74
2022-08-17T16:27:28.107Z,33.76
2022-08-17T16:29:03.312Z,33.73
2022-08-17T16:30:37.575Z,33.71
2022-08-17T16:32:14.609Z,33.67
2022-08-17T16:34:15.548Z,33.65
2022-08-17T16:35:44.730Z,33.60
2022-08-17T16:37:18.432Z,33.57
2022-08-17T16:38:52.758Z,33.54
2022-08-17T16:40:29.159Z,33.48
2022-08-17T16:42:09.273Z,33.48
2022-08-17T16:43:43.516Z,33.45
2022-08-17T16:45:19.324Z,33.45
2022-08-17T16:46:52.675Z,33.39
2022-08-17T16:48:25.916Z,33.36
2022-08-17T16:49:59.336Z,33.33
2022-08-17T16:51:32.658Z,33.23
2022-08-17T16:53:08.524Z,33.23
2022-08-17T16:54:44.380Z,33.18
2022-08-17T16:56:19.214Z,33.14
2022-08-17T16:57:54.112Z,33.04
2022-08-17T16:59:30.978Z,33.04
2022-08-17T17:01:13.689Z,33.00
2022-08-17T17:02:49.711Z,32.96
2022-08-17T17:04:24.333Z,32.86
2022-08-17T17:06:06.533Z,32.83
2022-08-17T17:08:03.442Z,32.80
2022-08-17T17:09:39.245Z,32.72
2022-08-17T17:11:23.134Z,32.63
2022-08-17T17:13:02.871Z,32.55
2022-08-17T17:14:40.044Z,32.47
2022-08-17T17:16:19.366Z,32.42
2022-08-17T17:17:53.457Z,32.34
2022-08-17T17:19:38.404Z,32.28
2022-08-17T17:21:15.380Z,32.21
2022-08-17T17:22:55.663Z,32.14
2022-08-17T17:24:33.779Z,32.08
2022-08-17T17:26:46.400Z,32.04
2022-08-17T17:28:29.175Z,31.95
2022-08-17T17:30:11.503Z,31.87
2022-08-17T17:31:52.782Z,31.82
2022-08-17T17:33:35.596Z,31.76
2022-08-17T17:35:16.534Z,31.69
2022-08-17T17:36:53.091Z,31.62
2022-08-17T17:38:30.651Z,31.58
2022-08-17T17:40:09.574Z,31.51
2022-08-17T17:41:48.442Z,31.45
2022-08-17T17:43:38.907Z,31.40
2022-08-17T17:45:24.050Z,31.34
2022-08-17T17:47:00.778Z,31.26
2022-08-17T17:48:34.181Z,31.23
2022-08-17T17:50:09.142Z,31.17
2022-08-17T17:52:06.662Z,31.17
2022-08-17T17:53:52.254Z,31.08
2022-08-17T17:55:36.186Z,31.06
2022-08-17T17:57:20.664Z,31.02
2022-08-17T17:59:02.685Z,30.94
2022-08-17T18:00:41.563Z,30.92
2022-08-17T18:02:39.782Z,30.91
2022-08-17T18:04:23.556Z,30.86
2022-08-17T18:06:12.739Z,30.83
2022-08-17T18:07:54.471Z,30.77
2022-08-17T18:09:49.902Z,30.64
2022-08-17T18:11:52.080Z,30.44
2022-08-17T18:13:36.722Z,30.28
2022-08-17T18:15:26.196Z,30.25
2022-08-17T18:17:02.205Z,30.19
2022-08-17T18:18:43.249Z,30.12
2022-08-17T18:20:35.970Z,30.09
2022-08-17T18:22:21.197Z,30.02
2022-08-17T18:23:56.298Z,30.00
2022-08-17T18:25:43.200Z,30.00
2022-08-17T18:27:26.536Z,29.97
2022-08-17T18:29:02.759Z,29.95
2022-08-17T18:30:37.336Z,29.95
2022-08-17T18:32:32.914Z,29.92
2022-08-17T18:34:45.766Z,29.92
2022-08-17T18:36:28.962Z,29.86
2022-08-17T18:38:21.816Z,29.84
2022-08-17T18:39:55.574Z,29.83
2022-08-17T18:41:30.826Z,29.85
2022-08-17T18:43:07.293Z,29.83
2022-08-17T18:44:45.058Z,29.86
2022-08-17T18:46:28.964Z,29.83
2022-08-17T18:48:03.398Z,29.80
2022-08-17T18:49:37.426Z,29.73
2022-08-17T18:51:26.270Z,29.64
2022-08-17T18:53:39.253Z,29.55
2022-08-17T18:55:14.796Z,29.49
2022-08-17T18:56:54.728Z,29.41
2022-08-17T18:58:26.991Z,29.36
2022-08-17T19:00:01.223Z,29.33
2022-08-17T19:02:00.831Z,29.29
2022-08-17T19:03:43.465Z,29.27
2022-08-17T19:05:29.672Z,29.26
2022-08-17T19:07:28.072Z,29.24
2022-08-17T19:09:01.962Z,29.18
2022-08-17T19:10:47.021Z,29.19
2022-08-17T19:12:30.035Z,29.16
2022-08-17T19:14:07.846Z,29.14
2022-08-17T19:16:14.162Z,28.93
2022-08-17T19:17:49.237Z,28.80
2022-08-17T19:19:27.623Z,28.67
2022-08-17T19:21:05.203Z,28.66
2022-08-17T19:22:49.935Z,28.54
2022-08-17T19:24:25.583Z,28.54
2022-08-17T19:26:04.013Z,28.54
2022-08-17T19:27:57.815Z,28.48
2022-08-17T19:29:38.481Z,28.40
2022-08-17T19:31:18.879Z,28.35
2022-08-17T19:32:53.914Z,28.25
2022-08-17T19:34:34.073Z,28.17
2022-08-17T19:36:11.139Z,28.03
2022-08-17T19:37:55.390Z,28.00
2022-08-17T19:39:38.184Z,27.90
2022-08-17T19:41:21.186Z,27.89
2022-08-17T19:43:04.300Z,27.86
2022-08-17T19:44:50.724Z,27.84
2022-08-17T19:46:31.024Z,27.83
2022-08-17T19:48:20.774Z,27.78
2022-08-17T19:50:04.060Z,27.73
2022-08-17T19:51:45.263Z,27.68
2022-08-17T19:53:47.388Z,27.67
2022-08-17T19:55:30.590Z,27.69
2022-08-17T19:57:11.726Z,27.69
2022-08-17T19:58:58.456Z,27.63
2022-08-17T20:00:36.551Z,27.50
2022-08-17T20:02:25.119Z,27.62
2022-08-17T20:04:08.973Z,27.43
2022-08-17T20:06:11.539Z,27.41
2022-08-17T20:07:51.456Z,27.35
2022-08-17T20:09:34.755Z,27.30
2022-08-17T20:11:12.195Z,27.24
2022-08-17T20:12:47.090Z,27.18
2022-08-17T20:14:23.539Z,27.03
2022-08-17T20:15:56.971Z,27.01
2022-08-17T20:17:37.197Z,26.98
2022-08-17T20:19:23.463Z,26.91
2022-08-17T20:21:00.142Z,26.87
2022-08-17T20:22:52.179Z,26.89
2022-08-17T20:24:33.739Z,26.86
2022-08-17T20:26:19.264Z,26.84
2022-08-17T20:28:00.649Z,26.81
2022-08-17T20:30:01.930Z,26.73
2022-08-17T20:31:44.788Z,26.70
2022-08-17T20:33:27.335Z,26.69
2022-08-17T20:35:10.799Z,26.65
2022-08-17T20:36:59.545Z,26.55
2022-08-17T20:38:43.717Z,26.36
2022-08-17T20:40:27.902Z,26.34
2022-08-17T20:42:08.693Z,26.28
2022-08-17T20:44:03.088Z,26.18
2022-08-17T20:46:08.905Z,26.11
2022-08-17T20:48:07.299Z,26.09
2022-08-17T20:49:53.482Z,25.96
2022-08-17T20:51:39.454Z,25.93
2022-08-17T20:53:36.658Z,25.90
2022-08-17T20:55:30.676Z,25.92
2022-08-17T20:57:06.172Z,25.84
2022-08-17T20:58:48.993Z,25.94
2022-08-17T21:00:47.242Z,25.89
2022-08-17T21:02:21.641Z,25.90
2022-08-17T21:03:56.120Z,25.86
2022-08-17T21:05:32.496Z,25.84
2022-08-17T21:07:30.303Z,25.84
2022-08-17T21:09:29.906Z,25.79
2022-08-17T21:12:01.509Z,25.79
2022-08-17T21:13:55.124Z,25.86
2022-08-17T21:15:35.010Z,25.85
2022-08-17T21:17:29.748Z,25.86
2022-08-17T21:19:17.166Z,25.79
2022-08-17T21:23:22.524Z,25.82
2022-08-17T21:25:05.182Z,25.82
2022-08-17T21:26:51.091Z,25.76
2022-08-17T21:28:33.844Z,25.74
2022-08-17T21:30:44.583Z,25.74
2022-08-17T21:32:23.738Z,25.69
2022-08-17T21:34:27.521Z,25.67
2022-08-17T21:36:33.914Z,25.65
2022-08-17T21:38:17.182Z,25.61
2022-08-17T21:39:52.574Z,25.60
2022-08-17T21:41:30.738Z,25.58
2022-08-17T21:43:23.686Z,25.54
2022-08-17T21:45:00.350Z,25.46
2022-08-17T21:46:38.570Z,25.39
2022-08-17T21:48:15.480Z,25.39